Stations météo

réclame
Mon MeteoGroup
Hohenpeißenberg, Allemagne (10962): Température de l'air & dewpoint: 18.01.2018 10:00:00 - 24.01.2018 10:00:00 (CET)Hohenpeißenberg, Allemagne (10962): Température de l'air 5cm & Température de l'air -5cm: 18.01.2018 10:00:00 - 24.01.2018 10:00:00 (CET)Hohenpeißenberg, Allemagne (10962): Température de l'air -20cm & Température de l'air -100cm: 18.01.2018 10:00:00 - 24.01.2018 10:00:00 (CET)Hohenpeißenberg, Allemagne (10962): Vitesse du vent & gusts: 18.01.2018 10:00:00 - 24.01.2018 10:00:00 (CET)Hohenpeißenberg, Allemagne (10962): Direction du vent: 18.01.2018 10:00:00 - 24.01.2018 10:00:00 (CET)Hohenpeißenberg, Allemagne (10962): visibility: 18.01.2018 10:00:00 - 24.01.2018 10:00:00 (CET)Hohenpeißenberg, Allemagne (10962): Ensoleillement: 18.01.2018 10:00:00 - 24.01.2018 10:00:00 (CET)Hohenpeißenberg, Allemagne (10962): Quantités de précipitations: 18.01.2018 10:00:00 - 24.01.2018 10:00:00 (CET)
Date & Time tt [°C] td [°C] tt 5cm [°C] tt -5cm [°C] tt -20cm [°C] tt -100cm [°C] ff [km/h] ff [knt] fx [km/h] fx [knt] dd vv [km] sd [min] rr [mm]
24.01.2018 10:00:00 7,7 -2,0 5,0 0,3 0,6 3,3 12 6 21 11 S 82 57 0,0
24.01.2018 09:00:00 4,2 -1,6 1,9 0,2 0,6 3,3 16 9 29 16 SSW 80 9 0,0
24.01.2018 08:00:00 4,7 -3,4 2,8 0,2 0,6 3,3 21 12 37 20 SW 70 0 0,0
24.01.2018 07:00:00 4,0 -2,9 2,6 0,2 0,6 3,3 21 12 35 19 SW 40 0 0,0
24.01.2018 06:00:00 5,0 -3,5 4,3 0,2 0,6 3,3 24 13 39 21 W 40 0 0,0
24.01.2018 05:00:00 4,3 -4,0 2,9 0,2 0,6 3,3 29 16 45 24 WSW 40 0 0,0
24.01.2018 04:00:00 4,3 -4,5 3,5 0,2 0,6 3,3 29 16 41 22 WSW 20 0 0,0
24.01.2018 03:00:00 3,1 -3,6 2,0 0,2 0,6 3,3 30 16 49 26 SW 40 0 0,0
24.01.2018 02:00:00 3,0 -3,7 2,1 0,2 0,6 3,3 34 19 53 28 WSW 40 0 0,0
24.01.2018 01:00:00 2,4 -2,3 -0,8 0,2 0,6 3,3 38 20 50 27 WSW 40 0 0,0
24.01.2018 00:00:00 1,0 -1,0 -0,8 0,2 0,6 3,3 24 13 33 18 WSW 40 0 0,0
23.01.2018 23:00:00 0,8 0,0 -2,1 0,2 0,6 3,3 11 6 14 7 SSW 40 0 0,0
23.01.2018 22:00:00 0,1 -0,6 -1,8 0,2 0,6 3,3 11 6 15 8 SSE 20 0 0,0
23.01.2018 21:00:00 0,7 0,2 -1,2 0,2 0,6 3,3 12 7 22 12 SSW 20 0 0,0
23.01.2018 20:00:00 0,2 -0,3 -1,3 0,2 0,6 3,4 14 8 19 10 SSW 20 0 0,0
23.01.2018 19:00:00 0,6 0,0 -0,4 0,2 0,6 3,4 13 7 25 14 SW 20 0 0,0
23.01.2018 18:00:00 1,3 0,0 0,0 0,2 0,6 3,4 16 9 24 13 WSW 18 0 0,0
23.01.2018 17:00:00 1,9 -0,5 0,7 0,2 0,6 3,4 10 6 39 21 WSW 30 49 0,0
23.01.2018 16:00:00 3,6 -0,2 3,8 0,2 0,6 3,4 22 12 35 19 WSW 18 47 0,0
23.01.2018 15:00:00 3,2 -0,3 2,9 0,2 0,6 3,4 14 8 30 16 W 20 18 0,0
23.01.2018 14:00:00 3,7 0,0 4,0 0,2 0,6 3,4 15 8 27 15 WSW 40 12 0,0
23.01.2018 13:00:00 3,8 -0,2 4,4 0,2 0,6 3,3 13 7 31 17 WSW 40 20 0,0
23.01.2018 12:00:00 1,9 -0,1 2,0 0,2 0,6 3,3 20 11 30 16 SW 30 3 0,0
23.01.2018 11:00:00 0,8 -0,1 0,8 0,2 0,6 3,3 22 12 41 22 WSW 30 0 0,0
23.01.2018 10:00:00 0,4 0,1 0,5 0,2 0,6 3,3 22 12 36 19 WSW 0,3 0 0,0
23.01.2018 09:00:00 0,2 0,0 0,2 0,2 0,6 3,4 23 12 39 21 WSW 0,3 0 0,0
23.01.2018 08:00:00 0,1 -0,2 0,1 0,2 0,6 3,4 23 13 35 19 WSW 0,3 0 0,0
23.01.2018 07:00:00 0,3 0,1 0,2 0,2 0,6 3,4 20 11 32 18 WSW 0,3 0 0,0
23.01.2018 06:00:00 0,6 0,3 0,5 0,2 0,6 3,4 16 8 31 17 WSW 10 0 -
23.01.2018 05:00:00 0,3 -0,2 0,3 0,2 0,6 3,4 16 9 32 17 WNW 0,1 0 0,1
23.01.2018 04:00:00 0,6 0,5 0,6 0,2 0,6 3,4 15 8 37 20 NW 0,1 0 0,1
23.01.2018 03:00:00 0,5 0,5 0,3 0,2 0,6 3,4 11 6 26 14 NW 0,1 0 0,8
23.01.2018 02:00:00 0,9 0,8 0,4 0,2 0,6 3,4 13 7 35 19 WNW 0,1 0 0,2
23.01.2018 01:00:00 1,1 1,1 1,0 0,2 0,6 3,4 16 9 42 23 NW 0,1 0 0,8
23.01.2018 00:00:00 2,5 2,4 2,3 0,2 0,6 3,4 24 13 38 20 WSW 0,1 0 0,8
22.01.2018 23:00:00 2,6 2,4 2,2 0,2 0,6 3,4 20 11 34 19 WSW 0,1 0 0,7
22.01.2018 22:00:00 2,8 2,7 2,6 0,2 0,6 3,5 14 8 23 12 W 0,1 0 0,2
22.01.2018 21:00:00 2,9 2,9 2,6 0,2 0,6 3,5 13 7 31 17 NW 0,1 0 1,6
22.01.2018 20:00:00 3,3 3,3 3,0 0,2 0,6 3,5 18 10 45 25 WNW 0,1 0 3,2
22.01.2018 19:00:00 3,0 2,8 2,6 0,2 0,6 3,5 32 18 52 28 WSW 0,5 0 2,8
22.01.2018 18:00:00 2,8 2,6 2,3 0,2 0,7 3,5 35 19 57 31 WSW 0,9 0 2,5
22.01.2018 17:00:00 2,7 2,4 1,9 0,2 0,7 3,5 33 18 48 26 SW 0,9 0 1,5
22.01.2018 16:00:00 3,0 2,6 2,3 0,2 0,7 3,5 29 16 45 25 WSW 1,5 0 0,8
22.01.2018 15:00:00 2,5 2,1 2,1 0,2 0,7 3,5 31 17 76 41 WSW 2,5 0 0,4
22.01.2018 14:00:00 3,4 1,9 2,7 0,2 0,7 3,5 50 27 77 42 SW 20 0 0,0
22.01.2018 13:00:00 4,4 3,2 3,6 0,3 0,7 3,5 46 25 80 43 WSW 20 0 0,0
22.01.2018 12:00:00 4,0 3,7 3,4 0,3 0,7 3,5 47 25 72 39 WSW 11 0 0,0
22.01.2018 11:00:00 3,8 3,6 3,4 0,3 0,7 3,5 48 26 76 41 WSW 1,5 0 0,1
22.01.2018 10:00:00 3,2 3,1 2,7 0,3 0,7 3,5 44 24 72 39 WSW 1,5 0 0,3
22.01.2018 09:00:00 2,5 2,4 2,1 0,3 0,7 3,5 41 22 67 36 WSW 0,2 0 0,4
22.01.2018 08:00:00 2,0 2,0 1,6 0,3 0,7 3,5 41 22 66 36 WSW 0,2 0 0,6
22.01.2018 07:00:00 0,7 0,5 0,7 0,3 0,7 3,5 45 25 71 38 SW 0,1 0 0,4
22.01.2018 06:00:00 -0,2 -0,4 0,0 0,3 0,7 3,5 39 21 59 32 SW 0,1 0 1,5
22.01.2018 05:00:00 -1,3 -1,7 -1,3 0,3 0,7 3,5 26 14 40 22 WSW 0,1 0 3,1
22.01.2018 04:00:00 -3,3 -4,0 -3,2 0,3 0,7 3,5 16 8 22 12 ESE 0,1 0 2,4
22.01.2018 03:00:00 -3,6 -4,2 -3,5 0,3 0,7 3,5 18 10 27 15 SE 0,1 0 1,4
22.01.2018 02:00:00 -3,7 -4,4 -3,6 0,3 0,7 3,5 12 7 14 8 SE 0,1 0 0,5
22.01.2018 01:00:00 -3,6 -4,3 -3,7 0,3 0,7 3,5 9 5 16 8 SSE 0,1 0 0,1
22.01.2018 00:00:00 -3,7 -4,4 -3,7 0,3 0,7 3,5 13 7 22 12 S 0,1 0 0,1
21.01.2018 23:00:00 -3,7 -4,5 -3,8 0,3 0,7 3,5 14 8 20 11 SSE 30 0 0,0
21.01.2018 22:00:00 -3,4 -4,6 -4,3 0,3 0,7 3,6 7 4 11 6 S 30 0 0,0
21.01.2018 21:00:00 -3,6 -4,9 -4,7 0,3 0,7 3,6 10 5 13 7 W 30 0 0,0
21.01.2018 20:00:00 -3,8 -4,9 -4,5 0,3 0,7 3,6 11 6 16 8 W 30 0 0,0
21.01.2018 19:00:00 -4,1 -5,3 -5,2 0,3 0,7 3,6 8 5 25 14 WSW 30 0 0,0
21.01.2018 18:00:00 -3,7 -5,5 -4,6 0,3 0,7 3,6 16 9 26 14 WNW 30 0 0,0
21.01.2018 17:00:00 -3,7 -5,6 -4,4 0,3 0,7 3,6 15 8 34 18 WNW 32 13 0,0
21.01.2018 16:00:00 -2,7 -5,3 -2,3 0,3 0,7 3,6 18 10 34 19 WNW 35 40 0,0
21.01.2018 15:00:00 -3,3 -4,7 -3,7 0,3 0,7 3,6 12 7 30 16 NW 28 2 0,0
21.01.2018 14:00:00 -2,7 -4,1 -2,4 0,3 0,7 3,6 16 8 36 19 WNW 18 0 0,0
21.01.2018 13:00:00 -2,6 -3,8 -2,2 0,3 0,7 3,6 16 9 33 18 WNW 18 0 0,0
21.01.2018 12:00:00 -2,5 -3,5 -2,1 0,3 0,7 3,6 16 9 40 22 NW 18 0 0,0
21.01.2018 11:00:00 -2,6 -3,4 -2,4 0,3 0,7 3,6 18 10 54 29 NW 15 0 0,0
21.01.2018 10:00:00 -2,5 -3,1 -2,3 0,3 0,7 3,6 23 12 49 27 NNW 0,8 0 0,0
21.01.2018 09:00:00 -2,1 -2,6 -1,9 0,3 0,7 3,6 26 14 57 31 NNW 0,1 0 0,4
21.01.2018 08:00:00 -1,1 -1,4 -1,0 0,3 0,7 3,6 17 9 43 23 WNW 1,2 0 0,0
21.01.2018 07:00:00 -1,2 -1,5 -1,1 0,3 0,7 3,6 18 10 40 21 W 0,1 0 0,1
21.01.2018 06:00:00 -1,1 -1,3 -1,1 0,3 0,7 3,6 17 9 34 19 W 0,1 0 0,1
21.01.2018 05:00:00 -1,1 -1,4 -1,1 0,3 0,7 3,6 17 9 37 20 W 0,1 0 0,0
21.01.2018 04:00:00 -1,0 -1,3 -1,0 0,3 0,7 3,6 19 10 44 24 WNW 0,1 0 0,1
21.01.2018 03:00:00 -0,5 -0,7 -0,4 0,3 0,7 3,6 15 8 42 23 NW 0,1 0 0,3
21.01.2018 02:00:00 -0,1 -0,4 0,0 0,3 0,7 3,6 20 11 38 20 NW 0,1 0 0,6
21.01.2018 01:00:00 -0,3 -0,4 -0,2 0,3 0,7 3,6 21 12 41 22 W 0,1 0 1,2
21.01.2018 00:00:00 -0,3 -0,5 -0,3 0,3 0,8 3,6 22 12 44 24 W 0,1 0 0,8
20.01.2018 23:00:00 -0,3 -0,5 -0,2 0,3 0,8 3,6 34 18 58 31 WSW 0,1 0 0,8
20.01.2018 22:00:00 -0,6 -0,9 -0,6 0,3 0,8 3,6 33 18 50 27 SW 0,1 0 1,9
20.01.2018 21:00:00 -1,1 -1,3 -1,1 0,3 0,8 3,6 15 8 27 15 SSW 0,1 0 4,2
20.01.2018 20:00:00 -1,2 -1,5 -1,2 0,3 0,8 3,6 24 13 33 18 SSE 0,1 0 2,6
20.01.2018 19:00:00 -1,6 -2,2 -1,5 0,3 0,8 3,6 27 14 32 18 SE 1,0 0 0,7
20.01.2018 18:00:00 -1,1 -2,7 -1,3 0,3 0,8 3,6 13 7 23 13 SE 6 0 0,2
20.01.2018 17:00:00 -0,1 -3,8 -0,8 0,3 0,8 3,6 13 7 23 13 SSE 45 0 0,0
20.01.2018 16:00:00 -0,2 -3,8 -0,7 0,3 0,8 3,6 16 9 27 14 SSE 82 0 0,0
20.01.2018 15:00:00 -0,3 -3,3 -0,8 0,3 0,8 3,6 15 8 31 17 SSE 82 15 0,0
20.01.2018 14:00:00 -0,2 -2,8 -0,3 0,3 0,8 3,6 23 12 40 22 SW 82 35 0,0
20.01.2018 13:00:00 -1,1 -3,0 -1,0 0,3 0,8 3,6 29 15 47 25 SW 35 10 0,0
20.01.2018 12:00:00 -1,4 -3,4 -1,1 0,3 0,8 3,6 28 15 41 22 WSW 25 4 0,0
20.01.2018 11:00:00 -1,8 -3,5 -1,6 0,3 0,8 3,6 26 14 60 32 SW 35 19 0,0
20.01.2018 10:00:00 -2,3 -3,8 -2,2 0,3 0,8 3,7 32 17 56 30 SW 32 6 0,0
20.01.2018 09:00:00 -2,6 -4,4 -2,6 0,3 0,8 3,7 36 20 54 29 SW 82 10 0,0
20.01.2018 08:00:00 -3,0 -4,5 -3,3 0,3 0,8 3,7 37 20 65 35 SW 82 0 0,0
20.01.2018 07:00:00 -3,2 -4,6 -3,9 0,3 0,8 3,7 36 19 61 33 SW 45 0 0,0
20.01.2018 06:00:00 -3,0 -4,1 -3,5 0,3 0,8 3,7 40 21 63 34 WSW 45 0 0,0
20.01.2018 05:00:00 -2,7 -3,4 -2,8 0,3 0,8 3,7 36 19 63 34 SW 20 0 0,0
20.01.2018 04:00:00 -2,1 -2,6 -2,2 0,3 0,8 3,7 32 17 53 29 WSW 4,4 0 0,1
20.01.2018 03:00:00 -1,8 -2,3 -1,9 0,3 0,8 3,7 26 14 48 26 WSW 14 0 0,1
20.01.2018 02:00:00 -2,1 -2,5 -2,1 0,3 0,8 3,7 16 8 36 19 NW 0,8 0 0,0
20.01.2018 01:00:00 -1,7 -2,2 -1,6 0,3 0,8 3,7 19 10 58 31 W 0,9 0 0,0
20.01.2018 00:00:00 -1,3 -1,7 -1,3 0,3 0,8 3,7 29 16 59 32 SW 4,0 0 0,0
19.01.2018 23:00:00 -1,5 -1,9 -1,7 0,3 0,8 3,7 41 22 58 31 SW 5 0 0,1
19.01.2018 22:00:00 -1,8 -2,2 -2,4 0,3 0,8 3,7 30 16 52 28 SW 0,2 0 0,0
19.01.2018 21:00:00 -1,7 -2,3 -2,2 0,3 0,8 3,7 30 16 49 26 WSW 8 0 0,0
19.01.2018 20:00:00 -1,7 -2,4 -2,0 0,3 0,8 3,7 30 16 45 25 SW 50 0 0,0
19.01.2018 19:00:00 -1,7 -2,3 -2,5 0,3 0,8 3,7 28 15 47 26 SW 20 0 0,0
19.01.2018 18:00:00 -1,7 -2,4 -2,4 0,3 0,8 3,7 28 15 51 28 SW 20 0 0,0
19.01.2018 17:00:00 -1,9 -3,0 -2,6 0,3 0,8 3,7 34 19 55 30 WSW 25 5 0,0
19.01.2018 16:00:00 -1,2 -2,0 -1,2 0,3 0,8 3,7 30 16 48 26 WSW 25 8 0,0
19.01.2018 15:00:00 -0,7 -1,2 -0,2 0,3 0,8 3,7 24 13 37 20 SW 18 8 0,1
19.01.2018 14:00:00 -0,1 -0,8 0,5 0,3 0,8 3,7 21 11 36 19 WSW 18 16 0,1
19.01.2018 13:00:00 -0,5 -1,1 0,2 0,3 0,8 3,8 23 12 41 22 W 18 16 0,0
19.01.2018 12:00:00 -1,0 -1,8 -0,4 0,3 0,8 3,8 22 12 51 27 W 18 32 0,0
19.01.2018 11:00:00 -0,6 -1,0 0,0 0,3 0,8 3,8 26 14 44 24 WSW 18 21 0,0
19.01.2018 10:00:00 -1,1 -1,2 -1,0 0,3 0,8 3,8 21 11 43 23 WSW 18 0 0,0
19.01.2018 09:00:00 -1,1 -1,1 -1,0 0,3 0,8 3,8 21 12 42 23 WSW 0,9 0 0,1
19.01.2018 08:00:00 -1,3 -1,5 -1,2 0,3 0,8 3,8 24 13 50 27 W 0,1 0 1,5
19.01.2018 07:00:00 -0,8 -1,2 -0,8 0,3 0,8 3,8 25 13 66 35 WNW 0,1 0 1,6
19.01.2018 06:00:00 -0,2 -0,3 -0,2 0,3 0,8 3,8 41 22 72 39 SW 0,2 0 0,5
19.01.2018 05:00:00 -0,6 -0,6 -0,5 0,3 0,7 3,8 33 18 49 26 SW 0,1 0 1,9
19.01.2018 04:00:00 -0,6 -0,8 -0,5 0,3 0,7 3,8 29 15 45 25 WSW 0,1 0 1,1
19.01.2018 03:00:00 -0,6 -0,8 -0,5 0,2 0,7 3,8 23 12 46 25 WSW 0,1 0 3,3
19.01.2018 02:00:00 -0,5 -0,9 -0,3 0,2 0,7 3,8 27 15 45 25 WSW 0,1 0 2,3
19.01.2018 01:00:00 0,9 0,7 0,8 0,2 0,8 3,8 29 16 56 30 WSW 1,1 0 2,1
19.01.2018 00:00:00 1,4 1,2 1,2 0,2 0,8 3,8 26 14 64 35 W 0,1 0 1,3
18.01.2018 23:00:00 1,6 1,2 1,5 0,3 0,8 3,8 31 17 69 37 W 0,4 0 1,1
18.01.2018 22:00:00 2,1 1,7 1,9 0,3 0,8 3,8 31 17 90 48 W 1,5 0 1,2
18.01.2018 21:00:00 3,7 1,7 2,7 0,3 0,8 3,8 52 28 100 54 WSW 10 0 0,5
18.01.2018 20:00:00 3,9 1,5 2,7 0,3 0,9 3,8 53 29 97 53 WSW 14 0 0,2
18.01.2018 19:00:00 4,8 0,4 3,8 0,3 0,9 3,8 55 30 99 54 SW 82 0 0,0
18.01.2018 18:00:00 4,9 0,3 3,7 0,3 0,9 3,8 57 31 99 54 WSW 82 0 0,0
18.01.2018 17:00:00 4,7 0,2 3,4 0,3 0,9 3,8 63 34 108 58 SW 82 6 0,0
18.01.2018 16:00:00 4,5 0,0 3,8 0,3 0,9 3,9 60 32 116 63 SW 82 49 0,0
18.01.2018 15:00:00 3,9 -0,1 2,9 0,3 0,9 3,9 77 42 119 65 SW 82 0 0,0
18.01.2018 14:00:00 3,5 0,0 2,8 0,3 0,9 3,9 66 35 125 67 SW 75 15 0,0
18.01.2018 13:00:00 3,4 0,1 3,4 0,4 0,9 3,9 67 36 110 59 WSW 60 60 0,0
18.01.2018 12:00:00 2,4 -0,3 2,1 0,4 0,9 3,9 57 31 96 52 WSW 60 46 0,0
18.01.2018 11:00:00 1,3 -0,2 1,1 0,4 0,9 3,9 55 30 99 54 SW 40 15 0,0
18.01.2018 10:00:00 0,5 -0,8 0,2 0,4 0,9 3,9 58 31 88 48 SW 20 0 0,0

tt = Température de l'air
td = dewpoint
tt 5cm = Température de l'air 5cm
tt -5cm = Température de l'air -5cm
tt -20cm = Température de l'air -20cm
tt -100cm = Température de l'air -100cm
ff = Vitesse du vent
fx = gusts
dd = Direction du vent
vv = visibility
sd = Ensoleillement
rr = Quantités de précipitations

stations d'obs. à proximité